createdAt,value
2023-04-30T15:53:00.772Z,102019.41
2023-04-30T15:57:19.435Z,102020.85
2023-04-30T16:01:26.353Z,102022.07
2023-04-30T16:05:11.153Z,102024.70
2023-04-30T16:09:39.980Z,102014.23
2023-04-30T16:26:41.310Z,102000.11
2023-04-30T16:31:11.467Z,102005.01
2023-04-30T16:35:33.254Z,102002.20
2023-04-30T16:40:02.332Z,102002.88
2023-04-30T17:01:07.872Z,102000.28
2023-04-30T17:05:37.072Z,102007.15
2023-04-30T17:10:06.318Z,102007.66
2023-04-30T17:14:25.986Z,102005.39
2023-04-30T17:18:53.946Z,102002.04
2023-04-30T17:23:14.946Z,102004.84
2023-04-30T17:53:38.248Z,102025.16
2023-04-30T17:57:56.319Z,102026.78
2023-04-30T18:02:13.671Z,102026.66
2023-04-30T18:36:54.032Z,102042.67
2023-04-30T18:41:23.372Z,102046.77
2023-04-30T18:45:52.814Z,102052.58
2023-04-30T18:50:22.549Z,102056.92
2023-04-30T18:54:44.112Z,102058.57
2023-04-30T19:11:42.542Z,102076.41
2023-04-30T19:16:11.701Z,102082.45
2023-04-30T19:20:30.782Z,102086.48
2023-04-30T19:24:59.534Z,102086.41
2023-04-30T19:51:15.955Z,102094.13
2023-04-30T19:55:45.198Z,102093.96
2023-04-30T20:00:13.954Z,102099.02
2023-04-30T20:04:43.175Z,102104.40
2023-04-30T20:26:19.109Z,102094.88
2023-04-30T20:30:48.383Z,102092.73
2023-04-30T20:52:21.054Z,102086.36
2023-04-30T20:56:40.035Z,102080.20
2023-04-30T21:01:09.665Z,102080.91
2023-04-30T21:22:40.745Z,102093.27
2023-04-30T21:27:10.306Z,102093.41
2023-04-30T21:31:28.507Z,102092.13
2023-04-30T21:35:57.900Z,102093.80
2023-04-30T21:40:26.594Z,102105.64
2023-04-30T21:44:56.837Z,102112.23
2023-04-30T22:06:44.659Z,102109.09
2023-04-30T22:11:14.025Z,102099.34
2023-04-30T22:15:48.275Z,102095.04
2023-04-30T22:33:08.904Z,102096.48
2023-04-30T22:37:38.213Z,102089.02
2023-04-30T22:59:25.297Z,102090.77
2023-04-30T23:03:36.870Z,102083.09
2023-04-30T23:07:54.796Z,102079.10
2023-04-30T23:12:13.921Z,102081.06
2023-04-30T23:30:18.237Z,102083.27
2023-04-30T23:34:39.861Z,102082.25
2023-04-30T23:39:02.384Z,102078.60
2023-04-30T23:47:58.617Z,102075.70
2023-04-30T23:52:27.918Z,102070.11
